Аэропорт: Алыкель. Норильск

ICAO: UOOO

METAR:
2019-07-23 18:00:00
UOOO 231800Z 03008MPS CAVOK 14/12 Q1006 R01/CLRD60 NOSIG RMK QFE740/0987
METAR:
2019-07-23 17:00:00
TAF UOOO 231700Z 2318/2418 02011G17MPS 9999 SCT020 TEMPO 2318/2403 1500 BR FU BKN003